Terminal Aerodrome Forecast
Issued by NWS Greer, SC

Home | Current Version | Previous Version | Text Only | Print | Product List | Glossary On
Versions: 1 2 3 4 5 6 7 8 9 10 11 12 13 14 15 16 17 18 19 20 21 22 23 24 25 26
000
FTUS42 KGSP 012300
TAFGSP
TAF
KGSP 012339Z 0200/0224 03006KT P6SM OVC016
     FM020400 02005KT P6SM OVC010
     FM020700 02003KT 5SM BR OVC007
     FM021400 03005KT P6SM OVC014
     FM021700 05005KT P6SM OVC024
     FM021900 05005KT P6SM OVC045 PROB30 0219/0222 4SM TSRA
      OVC040CB=

USA.gov is the U.S. government's official web portal to all federal, state and local government web resources and services.